Terminal Aerodrome Forecast
Issued by NWS Sioux Falls, SD

Home | Current Version | Previous Version | Text Only | Print | Product List | Glossary Off
Versions: 1 2 3 4 5 6 7 8 9 10 11 12 13 14 15 16 17 18 19 20 21 22 23

706
FTUS43 KFSD 210535
TAFFSD
TAF
KFSD 210535Z 2106/2206 09004KT P6SM OVC014
      TEMPO 2106/2108 -SHRA
     FM210800 VRB03KT 6SM BR FEW003 OVC008
      TEMPO 2108/2111 3SM -SHRA BR OVC005
     FM211100 VRB03KT 3SM BR SCT003 OVC005
     FM211600 VRB03KT 6SM BR FEW003 OVC008
     FM211900 VRB03KT P6SM BKN015
     FM212200 15004KT P6SM BKN025
     FM220000 13004KT P6SM SCT035=

USA.gov is the U.S. government's official web portal to all federal, state and local government web resources and services.